Terminal Aerodrome Forecast
Issued by NWS

Home | Current Version | Previous Version | Graphics & Text | Print | Product List | Glossary Off
Versions: 1 2 3 4 5 6 7 8 9 10 11 12 13 14 15 16 17 18 19 20 21 22 23 24 25 26 27 28 29 30 31

000
FTUS43 KDDC 291100
TAFHYS
TAF
KHYS 291136Z 2912/3012 VRB06KT P6SM SCT200
     FM291600 19014KT P6SM SCT200
     FM300600 09010KT P6SM -RA OVC010
      TEMPO 3006/3010 5SM TSRA OVC004CB=

USA.gov is the U.S. government's official web portal to all federal, state and local government web resources and services.